createdAt,value
2019-05-20T00:01:46.903Z,86258.16
2019-05-20T00:04:13.717Z,86255.89
2019-05-20T00:06:40.447Z,86254.77
2019-05-20T00:09:07.201Z,86254.21
2019-05-20T00:11:34.100Z,86249.52
2019-05-20T00:14:00.841Z,86243.16
2019-05-20T00:16:27.584Z,86238.47
2019-05-20T00:18:54.481Z,86234.52
2019-05-20T00:21:21.234Z,86238.45
2019-05-20T00:23:47.996Z,86232.05
2019-05-20T00:26:14.818Z,86235.78
2019-05-20T00:28:41.560Z,86229.58
2019-05-20T00:31:08.298Z,86229.95
2019-05-20T00:33:35.078Z,86222.06
2019-05-20T00:36:01.811Z,86221.35
2019-05-20T00:38:28.550Z,86219.67
2019-05-20T00:40:55.333Z,86219.07
2019-05-20T00:43:22.135Z,86219.07
2019-05-20T00:45:48.870Z,86214.94
2019-05-20T00:48:15.697Z,86214.17
2019-05-20T00:50:42.447Z,86209.28
2019-05-20T00:53:09.390Z,86210.59
2019-05-20T00:55:38.676Z,86212.66
2019-05-20T00:58:05.433Z,86213.03
2019-05-20T01:00:32.464Z,86208.01
2019-05-20T01:02:59.367Z,86210.80
2019-05-20T01:05:26.084Z,86206.11
2019-05-20T01:07:52.862Z,86198.77
2019-05-20T01:10:20.969Z,86201.05
2019-05-20T01:12:47.726Z,86204.42
2019-05-20T01:15:14.975Z,86199.19
2019-05-20T01:17:41.752Z,86196.97
2019-05-20T01:20:08.984Z,86197.36
2019-05-20T01:22:35.720Z,86203.17
2019-05-20T01:25:04.332Z,86200.19
2019-05-20T01:27:31.079Z,86203.22
2019-05-20T01:29:57.803Z,86201.55
2019-05-20T01:32:24.634Z,86202.70
2019-05-20T01:34:51.364Z,86201.55
2019-05-20T01:37:18.091Z,86198.97
2019-05-20T01:39:44.903Z,86197.86
2019-05-20T01:42:11.675Z,86196.54
2019-05-20T01:44:38.433Z,86195.23
2019-05-20T01:47:05.342Z,86197.86
2019-05-20T01:49:32.076Z,86186.80
2019-05-20T01:51:58.830Z,86190.58
2019-05-20T01:54:25.751Z,86189.63
2019-05-20T01:56:52.545Z,86187.59
2019-05-20T01:59:19.322Z,86193.01
2019-05-20T02:01:46.202Z,86188.71
2019-05-20T02:04:12.951Z,86184.41
2019-05-20T02:06:39.663Z,86184.02
2019-05-20T02:09:07.597Z,86178.93
2019-05-20T02:11:34.365Z,86173.52
2019-05-20T02:14:01.171Z,86165.65
2019-05-20T02:16:28.328Z,86162.30
2019-05-20T02:18:55.063Z,86161.91
2019-05-20T02:21:21.834Z,86156.09
2019-05-20T02:23:48.760Z,86146.91
2019-05-20T02:26:15.534Z,86149.53
2019-05-20T02:28:42.297Z,86148.98
2019-05-20T02:31:09.142Z,86144.86
2019-05-20T02:33:50.696Z,86145.97
2019-05-20T02:36:04.376Z,86139.44
2019-05-20T02:38:31.175Z,86139.84
2019-05-20T02:40:57.931Z,86137.77
2019-05-20T02:43:24.809Z,86140.41
2019-05-20T02:45:51.594Z,86131.62
2019-05-20T02:48:18.362Z,86135.16
2019-05-20T02:50:45.101Z,86129.91
2019-05-20T02:53:11.897Z,86124.14
2019-05-20T02:55:38.653Z,86120.02
2019-05-20T02:58:05.427Z,86122.84
2019-05-20T03:00:32.342Z,86119.13
2019-05-20T03:02:59.095Z,86121.02
2019-05-20T03:05:25.868Z,86117.85
2019-05-20T03:07:52.818Z,86120.87
2019-05-20T03:10:19.539Z,86122.38
2019-05-20T03:12:46.265Z,86121.23
2019-05-20T03:15:13.793Z,86122.55
2019-05-20T03:17:40.534Z,86125.92
2019-05-20T03:20:07.698Z,86121.23
2019-05-20T03:22:34.562Z,86123.65
2019-05-20T03:25:01.513Z,86118.02
2019-05-20T03:27:28.268Z,86121.75
2019-05-20T03:29:55.081Z,86116.14
2019-05-20T03:32:21.842Z,86126.05
2019-05-20T03:34:58.784Z,86122.26
2019-05-20T03:37:17.204Z,86123.70
2019-05-20T03:39:43.965Z,86124.59
2019-05-20T03:42:10.715Z,86124.75
2019-05-20T03:44:37.582Z,86116.47
2019-05-20T03:47:04.291Z,86121.16
2019-05-20T03:49:31.052Z,86114.41
2019-05-20T03:51:57.989Z,86110.83
2019-05-20T03:54:24.733Z,86107.24
2019-05-20T03:56:51.494Z,86114.35
2019-05-20T03:59:18.305Z,86108.55
2019-05-20T04:01:45.052Z,86104.56
2019-05-20T04:04:11.794Z,86101.56
2019-05-20T04:06:38.701Z,86096.69
2019-05-20T04:09:06.575Z,86098.75
2019-05-20T04:11:33.323Z,86097.03
2019-05-20T04:14:00.200Z,86096.31
2019-05-20T04:16:26.946Z,86096.11
2019-05-20T04:18:54.446Z,86100.41
2019-05-20T04:21:21.287Z,86100.05
2019-05-20T04:23:48.314Z,86099.66
2019-05-20T04:26:15.107Z,86097.03
2019-05-20T04:28:41.989Z,86087.69
2019-05-20T04:31:08.755Z,86091.98
2019-05-20T04:33:35.497Z,86095.00
2019-05-20T04:36:02.508Z,86097.42
2019-05-20T04:38:29.262Z,86095.96
2019-05-20T04:40:56.022Z,86091.48
2019-05-20T04:43:22.879Z,86093.00
2019-05-20T04:45:49.725Z,86097.89
2019-05-20T04:48:16.463Z,86096.53
2019-05-20T04:50:43.488Z,86094.11
2019-05-20T04:53:10.239Z,86097.08
2019-05-20T04:55:37.007Z,86096.13
2019-05-20T04:58:03.899Z,86100.41
2019-05-20T05:00:47.855Z,86097.42
2019-05-20T05:03:14.654Z,86096.27
2019-05-20T05:05:41.430Z,86104.34
2019-05-20T05:08:08.190Z,86102.44
2019-05-20T05:10:34.992Z,86098.87
2019-05-20T05:13:01.732Z,86103.52
2019-05-20T05:15:28.471Z,86105.55
2019-05-20T05:17:55.352Z,86103.45
2019-05-20T05:20:22.215Z,86102.52
2019-05-20T05:22:48.953Z,86109.08
2019-05-20T05:25:15.839Z,86113.42
2019-05-20T05:27:42.626Z,86106.86
2019-05-20T05:30:09.566Z,86116.59
2019-05-20T05:32:36.367Z,86107.40
2019-05-20T05:35:05.258Z,86110.59
2019-05-20T05:37:32.002Z,86108.50
2019-05-20T05:39:58.812Z,86107.35
2019-05-20T05:42:25.554Z,86112.59
2019-05-20T05:44:52.319Z,86109.96
2019-05-20T05:47:19.267Z,86114.81
2019-05-20T05:49:46.013Z,86114.98
2019-05-20T05:52:12.782Z,86114.05
2019-05-20T05:54:39.606Z,86113.85
2019-05-20T05:57:06.344Z,86114.91
2019-05-20T05:59:33.088Z,86110.34
2019-05-20T06:01:59.980Z,86115.73
2019-05-20T06:04:26.723Z,86115.47
2019-05-20T06:06:53.543Z,86114.91
2019-05-20T06:09:20.387Z,86115.61
2019-05-20T06:11:47.093Z,86115.05
2019-05-20T06:14:13.872Z,86115.19
2019-05-20T06:16:41.393Z,86115.89
2019-05-20T06:19:08.150Z,86114.55
2019-05-20T06:21:54.778Z,86112.06
2019-05-20T06:24:21.530Z,86115.79
2019-05-20T06:26:48.286Z,86114.61
2019-05-20T06:29:15.085Z,86121.70
2019-05-20T06:31:42.056Z,86121.13
2019-05-20T06:34:08.795Z,86126.36
2019-05-20T06:36:35.701Z,86123.12
2019-05-20T06:39:04.654Z,86120.63
2019-05-20T06:41:31.435Z,86118.74
2019-05-20T06:43:58.341Z,86123.59
2019-05-20T06:46:25.069Z,86117.03
2019-05-20T06:48:51.858Z,86122.63
2019-05-20T06:51:18.662Z,86129.55
2019-05-20T06:53:45.396Z,86129.34
2019-05-20T06:56:12.151Z,86130.78
2019-05-20T06:58:39.032Z,86134.79
2019-05-20T07:01:05.761Z,86134.60
2019-05-20T07:03:32.604Z,86140.34
2019-05-20T07:05:59.520Z,86135.64
2019-05-20T07:08:26.244Z,86139.59
2019-05-20T07:10:53.167Z,86143.91
2019-05-20T07:13:39.705Z,86143.45
2019-05-20T07:16:06.446Z,86143.98
2019-05-20T07:18:33.198Z,86141.17
2019-05-20T07:21:00.117Z,86146.97
2019-05-20T07:23:26.873Z,86147.16
2019-05-20T07:25:53.739Z,86147.50
2019-05-20T07:28:21.033Z,86145.75
2019-05-20T07:30:47.784Z,86149.11
2019-05-20T07:33:14.529Z,86150.77
2019-05-20T07:35:41.355Z,86153.19
2019-05-20T07:38:08.111Z,86155.94
2019-05-20T07:40:34.847Z,86152.19
2019-05-20T07:43:02.201Z,86156.83
2019-05-20T07:45:32.679Z,86160.95
2019-05-20T07:47:59.898Z,86157.36
2019-05-20T07:50:28.347Z,86160.36
2019-05-20T07:52:55.519Z,86162.21
2019-05-20T07:55:27.233Z,86164.59
2019-05-20T07:57:59.528Z,86167.42
2019-05-20T08:00:26.319Z,86167.36
2019-05-20T08:02:53.098Z,86171.84
2019-05-20T08:05:19.837Z,86167.33
2019-05-20T08:07:52.522Z,86174.59
2019-05-20T08:10:15.385Z,86163.81
2019-05-20T08:12:42.274Z,86169.36
2019-05-20T08:15:09.928Z,86169.67
2019-05-20T08:17:36.687Z,86165.84
2019-05-20T08:20:07.656Z,86170.70
2019-05-20T08:22:34.558Z,86165.44
2019-05-20T08:25:02.792Z,86168.95
2019-05-20T08:27:29.679Z,86171.30
2019-05-20T08:29:56.428Z,86171.00
2019-05-20T08:32:23.282Z,86173.48
2019-05-20T08:34:50.277Z,86176.39
2019-05-20T08:37:17.057Z,86177.83
2019-05-20T08:39:43.810Z,86177.22
2019-05-20T08:42:11.627Z,86171.73
2019-05-20T08:44:38.502Z,86180.42
2019-05-20T08:47:05.259Z,86178.36
2019-05-20T08:49:32.091Z,86181.40
2019-05-20T08:51:58.926Z,86182.02
2019-05-20T08:54:25.719Z,86178.81
2019-05-20T08:56:52.672Z,86180.70
2019-05-20T08:59:19.438Z,86182.42
2019-05-20T09:01:46.229Z,86182.72
2019-05-20T09:04:13.190Z,86183.59
2019-05-20T09:06:39.971Z,86186.16
2019-05-20T09:09:06.744Z,86187.30
2019-05-20T09:11:33.609Z,86188.50
2019-05-20T09:14:00.539Z,86182.78
2019-05-20T09:16:27.339Z,86184.55
2019-05-20T09:18:54.369Z,86183.76
2019-05-20T09:21:21.156Z,86181.73
2019-05-20T09:23:47.927Z,86185.75
2019-05-20T09:26:14.867Z,86183.87
2019-05-20T09:28:41.668Z,86187.59
2019-05-20T09:31:08.681Z,86188.09
2019-05-20T09:33:36.496Z,86182.66
2019-05-20T09:36:03.700Z,86188.31
2019-05-20T09:38:30.493Z,86189.82
2019-05-20T09:40:57.420Z,86181.68
2019-05-20T09:43:24.300Z,86193.47
2019-05-20T09:46:05.744Z,86181.38
2019-05-20T09:48:19.875Z,86186.20
2019-05-20T09:50:46.648Z,86189.28
2019-05-20T09:53:13.470Z,86182.46
2019-05-20T09:55:40.394Z,86181.81
2019-05-20T09:58:07.378Z,86190.59
2019-05-20T10:00:34.647Z,86191.11
2019-05-20T10:03:01.563Z,86183.48
2019-05-20T10:05:28.425Z,86187.96
2019-05-20T10:07:55.233Z,86191.50
2019-05-20T10:10:22.689Z,86186.41
2019-05-20T10:12:49.465Z,86194.84
2019-05-20T10:15:17.010Z,86197.77
2019-05-20T10:17:44.033Z,86189.20
2019-05-20T10:20:12.185Z,86189.91
2019-05-20T10:22:38.969Z,86192.70
2019-05-20T10:25:07.533Z,86185.87
2019-05-20T10:27:34.294Z,86195.21
2019-05-20T10:30:01.090Z,86189.67
2019-05-20T10:32:27.919Z,86192.65
2019-05-20T10:34:54.767Z,86194.12
2019-05-20T10:37:21.632Z,86194.69
2019-05-20T10:39:48.565Z,86190.91
2019-05-20T10:42:15.350Z,86196.30
2019-05-20T10:44:42.181Z,86194.64
2019-05-20T10:47:09.070Z,86195.88
2019-05-20T10:49:35.859Z,86192.98
2019-05-20T10:52:02.659Z,86194.20
2019-05-20T10:54:29.590Z,86196.50
2019-05-20T10:56:59.567Z,86197.82
2019-05-20T10:59:24.942Z,86200.25
2019-05-20T11:01:51.893Z,86201.91
2019-05-20T11:04:18.684Z,86206.55
2019-05-20T11:06:45.491Z,86211.27
2019-05-20T11:09:14.303Z,86210.63
2019-05-20T11:11:40.984Z,86217.92
2019-05-20T11:14:08.866Z,86220.61
2019-05-20T11:16:35.712Z,86220.61
2019-05-20T11:19:02.879Z,86224.11
2019-05-20T11:21:29.828Z,86216.98
2019-05-20T11:23:56.651Z,86224.45
2019-05-20T11:26:23.424Z,86230.36
2019-05-20T11:28:50.219Z,86230.52
2019-05-20T11:31:17.162Z,86233.00
2019-05-20T11:33:43.942Z,86231.95
2019-05-20T11:36:12.075Z,86239.14
2019-05-20T11:38:39.027Z,86241.14
2019-05-20T11:41:07.546Z,86242.45
2019-05-20T11:43:35.672Z,86238.91
2019-05-20T11:46:02.653Z,86244.19
2019-05-20T11:48:29.385Z,86242.69
2019-05-20T11:50:56.175Z,86246.45
2019-05-20T11:53:23.212Z,86245.95
2019-05-20T11:55:50.003Z,86251.58
2019-05-20T11:58:16.934Z,86248.87
2019-05-20T12:00:43.861Z,86254.66
2019-05-20T12:03:10.630Z,86250.30
2019-05-20T12:05:42.410Z,86247.50
2019-05-20T12:08:13.781Z,86246.94
2019-05-20T12:10:43.510Z,86249.91
2019-05-20T12:13:12.513Z,86251.01
2019-05-20T12:15:42.303Z,86249.80
2019-05-20T12:18:09.013Z,86254.26
2019-05-20T12:20:35.776Z,86255.23
2019-05-20T12:23:02.680Z,86258.63
2019-05-20T12:25:29.420Z,86256.89
2019-05-20T12:27:56.189Z,86253.13
2019-05-20T12:30:23.072Z,86253.23
2019-05-20T12:32:49.842Z,86257.53
2019-05-20T12:35:16.614Z,86259.37
2019-05-20T12:37:45.681Z,86261.03
2019-05-20T12:40:13.944Z,86264.66
2019-05-20T12:42:40.849Z,86265.90
2019-05-20T12:45:08.932Z,86261.56
2019-05-20T12:47:35.670Z,86267.02
2019-05-20T12:50:04.345Z,86268.68
2019-05-20T12:52:31.231Z,86268.52
2019-05-20T12:55:17.666Z,86268.11
2019-05-20T12:57:44.626Z,86268.16
2019-05-20T13:00:14.879Z,86267.97
2019-05-20T13:02:42.123Z,86273.80
2019-05-20T13:05:09.443Z,86272.98
2019-05-20T13:07:36.262Z,86274.64
2019-05-20T13:10:26.645Z,86277.98
2019-05-20T13:12:36.571Z,86281.08
2019-05-20T13:15:08.487Z,86281.39
2019-05-20T13:17:35.272Z,86281.58
2019-05-20T13:20:02.345Z,86284.94
2019-05-20T13:22:29.139Z,86285.46
2019-05-20T13:24:55.927Z,86283.84
2019-05-20T13:27:22.858Z,86285.53
2019-05-20T13:29:49.625Z,86289.45
2019-05-20T13:32:21.132Z,86284.36
2019-05-20T13:34:48.325Z,86282.90
2019-05-20T13:37:15.272Z,86288.13
2019-05-20T13:39:45.848Z,86288.24
2019-05-20T13:42:17.267Z,86289.48
2019-05-20T13:44:44.091Z,86290.99
2019-05-20T13:47:11.286Z,86293.11
2019-05-20T13:49:38.387Z,86293.45
2019-05-20T13:52:05.181Z,86292.73
2019-05-20T13:54:32.124Z,86292.77
2019-05-20T13:56:59.220Z,86292.95
2019-05-20T13:59:26.269Z,86300.95
2019-05-20T14:01:53.242Z,86298.13
2019-05-20T14:04:20.324Z,86291.95
2019-05-20T14:06:47.170Z,86300.41
2019-05-20T14:09:13.997Z,86297.98
2019-05-20T14:11:41.043Z,86297.04
2019-05-20T14:14:08.193Z,86297.22
2019-05-20T14:16:35.013Z,86295.49
2019-05-20T14:19:01.963Z,86301.41
2019-05-20T14:21:28.785Z,86300.77
2019-05-20T14:23:55.724Z,86300.89
2019-05-20T14:26:22.974Z,86299.47
2019-05-20T14:28:52.674Z,86303.58
2019-05-20T14:31:19.612Z,86303.98
2019-05-20T14:33:46.809Z,86307.83
2019-05-20T14:36:36.071Z,86308.70
2019-05-20T14:38:42.387Z,86312.66
2019-05-20T14:41:20.875Z,86305.47
2019-05-20T14:43:38.202Z,86309.72
2019-05-20T14:46:05.064Z,86306.33
2019-05-20T14:48:32.842Z,86318.41
2019-05-20T14:51:00.017Z,86309.69
2019-05-20T14:53:26.785Z,86313.95
2019-05-20T14:55:53.673Z,86317.83
2019-05-20T14:58:20.518Z,86319.81
2019-05-20T15:00:47.264Z,86319.37
2019-05-20T15:03:14.246Z,86317.27
2019-05-20T15:05:41.222Z,86327.25
2019-05-20T15:08:07.991Z,86320.69
2019-05-20T15:10:34.889Z,86324.14
2019-05-20T15:13:01.620Z,86323.61
2019-05-20T15:15:28.901Z,86333.12
2019-05-20T15:17:55.753Z,86332.52
2019-05-20T15:20:22.493Z,86333.84
2019-05-20T15:22:49.228Z,86335.37
2019-05-20T15:25:16.119Z,86330.92
2019-05-20T15:27:42.886Z,86332.59
2019-05-20T15:30:09.955Z,86329.98
2019-05-20T15:32:36.862Z,86335.66
2019-05-20T15:35:04.906Z,86340.80
2019-05-20T15:37:31.668Z,86342.91
2019-05-20T15:39:58.553Z,86345.92
2019-05-20T15:42:25.300Z,86343.53
2019-05-20T15:44:52.253Z,86349.49
2019-05-20T15:47:19.252Z,86346.73
2019-05-20T15:49:46.168Z,86349.83
2019-05-20T15:52:12.923Z,86348.51
2019-05-20T15:54:39.741Z,86347.00
2019-05-20T15:57:06.492Z,86348.63
2019-05-20T15:59:45.565Z,86356.88
2019-05-20T16:02:02.007Z,86354.02
2019-05-20T16:04:28.829Z,86357.82
2019-05-20T16:06:55.591Z,86357.82
2019-05-20T16:09:22.391Z,86362.95
2019-05-20T16:11:49.124Z,86361.16
2019-05-20T16:14:15.899Z,86362.15
2019-05-20T16:16:42.901Z,86364.84
2019-05-20T16:19:09.606Z,86363.52
2019-05-20T16:21:36.369Z,86364.30
2019-05-20T16:24:03.416Z,86368.30
2019-05-20T16:26:30.247Z,86364.16
2019-05-20T16:28:57.001Z,86364.02
2019-05-20T16:31:23.982Z,86367.30
2019-05-20T16:33:50.713Z,86373.17
2019-05-20T16:36:17.487Z,86367.88
2019-05-20T16:38:44.532Z,86365.25
2019-05-20T16:41:11.283Z,86372.42
2019-05-20T16:43:38.100Z,86369.62
2019-05-20T16:46:04.889Z,86371.52
2019-05-20T16:48:31.633Z,86372.48
2019-05-20T16:50:58.378Z,86375.13
2019-05-20T16:53:25.292Z,86371.77
2019-05-20T16:55:52.173Z,86376.65
2019-05-20T16:58:18.920Z,86373.45
2019-05-20T17:00:45.996Z,86371.02
2019-05-20T17:03:12.761Z,86370.06
2019-05-20T17:05:39.504Z,86368.03
2019-05-20T17:08:07.437Z,86368.75
2019-05-20T17:10:34.196Z,86370.82
2019-05-20T17:13:00.940Z,86364.99
2019-05-20T17:15:27.882Z,86370.12
2019-05-20T17:17:54.619Z,86370.52
2019-05-20T17:20:21.368Z,86371.43
2019-05-20T17:22:48.275Z,86373.52
2019-05-20T17:25:15.127Z,86373.73
2019-05-20T17:27:43.861Z,86374.32
2019-05-20T17:30:11.339Z,86372.63
2019-05-20T17:32:38.099Z,86373.00
2019-05-20T17:35:05.496Z,86373.39
2019-05-20T17:37:32.324Z,86371.73
2019-05-20T17:39:59.153Z,86370.97
2019-05-20T17:42:25.886Z,86371.94
2019-05-20T17:44:52.710Z,86369.66
2019-05-20T17:47:19.444Z,86378.52
2019-05-20T17:49:46.443Z,86371.39
2019-05-20T17:52:13.349Z,86378.38
2019-05-20T17:54:40.083Z,86381.25
2019-05-20T17:57:06.838Z,86378.08
2019-05-20T17:59:33.742Z,86382.42
2019-05-20T18:02:00.683Z,86383.15
2019-05-20T18:04:27.458Z,86383.35
2019-05-20T18:06:54.270Z,86384.31
2019-05-20T18:09:21.747Z,86385.47
2019-05-20T18:11:50.452Z,86381.33
2019-05-20T18:14:17.253Z,86385.88
2019-05-20T18:16:43.994Z,86381.98
2019-05-20T18:19:10.720Z,86390.23
2019-05-20T18:21:39.718Z,86389.32
2019-05-20T18:24:06.277Z,86391.96
2019-05-20T18:26:33.017Z,86393.87
2019-05-20T18:28:59.915Z,86393.11
2019-05-20T18:31:32.516Z,86388.62
2019-05-20T18:33:55.251Z,86389.56
2019-05-20T18:36:22.235Z,86386.55
2019-05-20T18:38:49.772Z,86387.70
2019-05-20T18:41:22.663Z,86393.36
2019-05-20T18:43:50.905Z,86395.23
2019-05-20T18:46:17.651Z,86398.23
2019-05-20T18:48:44.430Z,86400.71
2019-05-20T18:51:11.210Z,86399.19
2019-05-20T18:53:37.977Z,86411.42
2019-05-20T18:56:04.729Z,86403.89
2019-05-20T18:58:31.753Z,86404.84
2019-05-20T19:00:58.514Z,86408.23
2019-05-20T19:03:25.849Z,86409.91
2019-05-20T19:05:53.463Z,86413.84
2019-05-20T19:08:20.284Z,86416.48
2019-05-20T19:10:47.036Z,86421.59
2019-05-20T19:13:13.917Z,86427.61
2019-05-20T19:15:40.643Z,86426.48
2019-05-20T19:18:07.488Z,86430.80
2019-05-20T19:20:34.299Z,86438.72
2019-05-20T19:23:01.052Z,86436.13
2019-05-20T19:25:37.463Z,86447.73
2019-05-20T19:27:56.587Z,86449.08
2019-05-20T19:30:23.324Z,86447.95
2019-05-20T19:32:50.046Z,86455.30
2019-05-20T19:35:16.933Z,86458.32
2019-05-20T19:37:43.670Z,86452.50
2019-05-20T19:40:11.108Z,86461.51
2019-05-20T19:42:37.945Z,86460.95
2019-05-20T19:45:05.264Z,86463.97
2019-05-20T19:47:32.009Z,86463.25
2019-05-20T19:49:58.943Z,86467.95
2019-05-20T19:52:25.712Z,86471.53
2019-05-20T19:54:52.468Z,86468.12
2019-05-20T19:57:19.360Z,86470.58
2019-05-20T19:59:46.111Z,86472.65
2019-05-20T20:02:17.515Z,86475.48
2019-05-20T20:04:41.570Z,86479.98
2019-05-20T20:07:08.338Z,86478.27
2019-05-20T20:09:35.087Z,86479.42
2019-05-20T20:12:01.882Z,86478.47
2019-05-20T20:14:28.637Z,86481.69
2019-05-20T20:16:55.420Z,86477.16
2019-05-20T20:19:22.352Z,86483.92
2019-05-20T20:21:49.080Z,86486.19
2019-05-20T20:24:15.824Z,86481.88
2019-05-20T20:26:42.822Z,86480.93
2019-05-20T20:29:11.227Z,86478.89
2019-05-20T20:31:38.130Z,86475.51
2019-05-20T20:34:05.542Z,86482.27
2019-05-20T20:36:32.293Z,86480.80
2019-05-20T20:38:59.043Z,86473.66
2019-05-20T20:41:25.876Z,86483.23
2019-05-20T20:43:52.602Z,86481.55
2019-05-20T20:46:19.356Z,86475.56
2019-05-20T20:48:46.256Z,86482.69
2019-05-20T20:51:13.004Z,86481.94
2019-05-20T20:53:39.757Z,86481.77
2019-05-20T20:56:06.632Z,86476.16
2019-05-20T20:58:33.387Z,86482.16
2019-05-20T21:01:00.110Z,86486.66
2019-05-20T21:03:26.926Z,86486.10
2019-05-20T21:05:53.706Z,86488.37
2019-05-20T21:08:20.450Z,86486.13
2019-05-20T21:10:47.372Z,86487.25
2019-05-20T21:13:14.112Z,86487.80
2019-05-20T21:15:40.869Z,86487.08
2019-05-20T21:18:07.672Z,86493.06
2019-05-20T21:20:34.414Z,86487.27
2019-05-20T21:23:01.168Z,86494.03
2019-05-20T21:25:28.051Z,86496.85
2019-05-20T21:27:54.831Z,86500.23
2019-05-20T21:30:21.587Z,86500.43
2019-05-20T21:32:48.383Z,86502.50
2019-05-20T21:35:15.120Z,86507.92
2019-05-20T21:37:41.867Z,86505.69
2019-05-20T21:40:08.776Z,86506.05
2019-05-20T21:42:35.530Z,86500.23
2019-05-20T21:45:05.571Z,86513.92
2019-05-20T21:47:32.370Z,86506.98
2019-05-20T21:49:59.176Z,86509.08
2019-05-20T21:52:25.852Z,86507.02
2019-05-20T21:54:52.644Z,86506.45
2019-05-20T21:57:19.396Z,86511.14
2019-05-20T21:59:46.145Z,86513.02
2019-05-20T22:02:12.960Z,86513.77
2019-05-20T22:04:39.710Z,86511.70
2019-05-20T22:07:06.479Z,86514.89
2019-05-20T22:09:33.376Z,86514.35
2019-05-20T22:12:00.112Z,86514.71
2019-05-20T22:14:26.880Z,86517.92
2019-05-20T22:16:53.767Z,86513.78
2019-05-20T22:19:20.821Z,86514.93
2019-05-20T22:21:47.559Z,86516.24
2019-05-20T22:24:14.472Z,86521.50
2019-05-20T22:26:41.184Z,86513.80
2019-05-20T22:29:07.925Z,86516.02
2019-05-20T22:31:34.801Z,86520.73
2019-05-20T22:34:01.532Z,86517.75
2019-05-20T22:36:28.284Z,86518.86
2019-05-20T22:38:56.072Z,86516.79
2019-05-20T22:41:22.816Z,86517.37
2019-05-20T22:43:49.541Z,86512.85
2019-05-20T22:46:16.440Z,86518.86
2019-05-20T22:48:43.201Z,86514.55
2019-05-20T22:51:09.930Z,86514.74
2019-05-20T22:53:36.759Z,86515.88
2019-05-20T22:56:03.521Z,86513.25
2019-05-20T22:58:30.300Z,86512.50
2019-05-20T23:00:57.097Z,86507.07
2019-05-20T23:03:23.852Z,86500.70
2019-05-20T23:05:50.586Z,86502.01
2019-05-20T23:08:18.436Z,86502.59
2019-05-20T23:10:45.188Z,86498.48
2019-05-20T23:13:11.910Z,86499.98
2019-05-20T23:15:38.831Z,86495.67
2019-05-20T23:18:05.572Z,86490.80
2019-05-20T23:20:32.295Z,86493.81
2019-05-20T23:22:59.081Z,86497.53
2019-05-20T23:25:25.863Z,86493.98
2019-05-20T23:27:52.610Z,86485.94
2019-05-20T23:30:19.507Z,86476.92
2019-05-20T23:32:46.256Z,86475.44
2019-05-20T23:35:13.207Z,86481.42
2019-05-20T23:37:40.109Z,86486.12
2019-05-20T23:40:07.586Z,86474.45
2019-05-20T23:42:34.338Z,86475.02
2019-05-20T23:45:01.316Z,86471.30
2019-05-20T23:47:28.075Z,86469.95
2019-05-20T23:49:54.848Z,86469.23
2019-05-20T23:52:21.733Z,86465.84
2019-05-20T23:54:48.524Z,86463.78
2019-05-20T23:57:15.259Z,86460.40
2019-05-20T23:59:42.104Z,86461.72
